sensor_id;sensor_type;location;lat;lon;timestamp;P1;P2;P0
70520;PMS5003;58442;52.716;23.560;2023-03-23T00:00:47;9;9;4
70520;PMS5003;58442;52.716;23.560;2023-03-23T00:02:54;13;12;8
70520;PMS5003;58442;52.716;23.560;2023-03-23T00:07:26;8;8;3
70520;PMS5003;58442;52.716;23.560;2023-03-23T00:09:28;12;11;7
70520;PMS5003;58442;52.716;23.560;2023-03-23T00:11:34;14;12;7
70520;PMS5003;58442;52.716;23.560;2023-03-23T00:13:36;12;12;7
70520;PMS5003;58442;52.716;23.560;2023-03-23T00:15:38;12;12;7
70520;PMS5003;58442;52.716;23.560;2023-03-23T00:17:42;14;14;8
70520;PMS5003;58442;52.716;23.560;2023-03-23T00:19:46;9;9;6
70520;PMS5003;58442;52.716;23.560;2023-03-23T00:21:48;11;11;7
70520;PMS5003;58442;52.716;23.560;2023-03-23T00:23:54;8;8;6
70520;PMS5003;58442;52.716;23.560;2023-03-23T00:25:55;10;10;8
70520;PMS5003;58442;52.716;23.560;2023-03-23T00:28:00;12;11;7
70520;PMS5003;58442;52.716;23.560;2023-03-23T00:41:58;12;11;6
70520;PMS5003;58442;52.716;23.560;2023-03-23T00:44:01;13;13;7
70520;PMS5003;58442;52.716;23.560;2023-03-23T00:46:03;14;14;9
70520;PMS5003;58442;52.716;23.560;2023-03-23T00:48:10;12;12;7
70520;PMS5003;58442;52.716;23.560;2023-03-23T00:50:15;12;12;7
70520;PMS5003;58442;52.716;23.560;2023-03-23T00:52:18;10;10;6
70520;PMS5003;58442;52.716;23.560;2023-03-23T00:54:20;12;12;8
70520;PMS5003;58442;52.716;23.560;2023-03-23T00:56:21;11;11;8
70520;PMS5003;58442;52.716;23.560;2023-03-23T00:58:24;14;14;5
70520;PMS5003;58442;52.716;23.560;2023-03-23T01:00:29;12;12;7
70520;PMS5003;58442;52.716;23.560;2023-03-23T01:02:30;13;13;6
70520;PMS5003;58442;52.716;23.560;2023-03-23T01:04:31;15;15;8
70520;PMS5003;58442;52.716;23.560;2023-03-23T01:06:38;12;10;7
70520;PMS5003;58442;52.716;23.560;2023-03-23T01:08:44;14;14;8
70520;PMS5003;58442;52.716;23.560;2023-03-23T01:10:49;10;10;6
70520;PMS5003;58442;52.716;23.560;2023-03-23T01:12:51;10;9;5
70520;PMS5003;58442;52.716;23.560;2023-03-23T01:14:53;9;9;4
70520;PMS5003;58442;52.716;23.560;2023-03-23T01:16:58;16;13;8
70520;PMS5003;58442;52.716;23.560;2023-03-23T01:19:00;12;12;9
70520;PMS5003;58442;52.716;23.560;2023-03-23T01:23:13;12;12;7
70520;PMS5003;58442;52.716;23.560;2023-03-23T01:25:15;13;13;7
70520;PMS5003;58442;52.716;23.560;2023-03-23T01:27:16;12;12;8
70520;PMS5003;58442;52.716;23.560;2023-03-23T01:29:18;20;15;5
70520;PMS5003;58442;52.716;23.560;2023-03-23T01:31:20;15;15;7
70520;PMS5003;58442;52.716;23.560;2023-03-23T01:33:28;11;11;8
70520;PMS5003;58442;52.716;23.560;2023-03-23T01:35:31;11;11;7
70520;PMS5003;58442;52.716;23.560;2023-03-23T01:37:32;9;9;5
70520;PMS5003;58442;52.716;23.560;2023-03-23T01:39:35;13;13;7
70520;PMS5003;58442;52.716;23.560;2023-03-23T01:41:43;12;12;7
70520;PMS5003;58442;52.716;23.560;2023-03-23T01:46:03;12;12;7
70520;PMS5003;58442;52.716;23.560;2023-03-23T01:48:15;11;11;7
70520;PMS5003;58442;52.716;23.560;2023-03-23T01:50:19;16;16;7
70520;PMS5003;58442;52.716;23.560;2023-03-23T01:52:28;13;13;6
70520;PMS5003;58442;52.716;23.560;2023-03-23T01:54:30;15;14;9
70520;PMS5003;58442;52.716;23.560;2023-03-23T01:56:34;10;10;5
70520;PMS5003;58442;52.716;23.560;2023-03-23T01:58:41;10;10;6
70520;PMS5003;58442;52.716;23.560;2023-03-23T02:00:43;9;9;7
70520;PMS5003;58442;52.716;23.560;2023-03-23T02:02:45;14;13;8
70520;PMS5003;58442;52.716;23.560;2023-03-23T02:04:49;13;13;7
70520;PMS5003;58442;52.716;23.560;2023-03-23T02:06:51;13;13;7
70520;PMS5003;58442;52.716;23.560;2023-03-23T02:08:58;12;12;8
70520;PMS5003;58442;52.716;23.560;2023-03-23T02:11:00;10;10;8
70520;PMS5003;58442;52.716;23.560;2023-03-23T02:13:03;14;14;9
70520;PMS5003;58442;52.716;23.560;2023-03-23T02:15:07;11;11;7
70520;PMS5003;58442;52.716;23.560;2023-03-23T02:17:18;12;11;6
70520;PMS5003;58442;52.716;23.560;2023-03-23T02:24:23;11;11;8
70520;PMS5003;58442;52.716;23.560;2023-03-23T02:38:33;11;11;7
70520;PMS5003;58442;52.716;23.560;2023-03-23T02:40:47;14;13;8
70520;PMS5003;58442;52.716;23.560;2023-03-23T02:42:52;10;10;7
70520;PMS5003;58442;52.716;23.560;2023-03-23T02:44:57;15;15;8
70520;PMS5003;58442;52.716;23.560;2023-03-23T02:47:04;17;13;7
70520;PMS5003;58442;52.716;23.560;2023-03-23T02:49:11;14;13;5
70520;PMS5003;58442;52.716;23.560;2023-03-23T02:51:23;11;11;6
70520;PMS5003;58442;52.716;23.560;2023-03-23T02:53:26;10;9;5
70520;PMS5003;58442;52.716;23.560;2023-03-23T02:55:30;13;13;8
70520;PMS5003;58442;52.716;23.560;2023-03-23T02:57:33;10;10;5
70520;PMS5003;58442;52.716;23.560;2023-03-23T02:59:38;10;10;6
70520;PMS5003;58442;52.716;23.560;2023-03-23T03:03:52;15;14;7
70520;PMS5003;58442;52.716;23.560;2023-03-23T03:10:26;13;13;7
70520;PMS5003;58442;52.716;23.560;2023-03-23T03:12:44;11;10;7
70520;PMS5003;58442;52.716;23.560;2023-03-23T03:17:24;12;12;8
70520;PMS5003;58442;52.716;23.560;2023-03-23T03:19:29;12;12;7
70520;PMS5003;58442;52.716;23.560;2023-03-23T03:21:34;13;13;6
70520;PMS5003;58442;52.716;23.560;2023-03-23T03:23:38;10;10;6
70520;PMS5003;58442;52.716;23.560;2023-03-23T03:25:42;11;11;7
70520;PMS5003;58442;52.716;23.560;2023-03-23T03:27:59;12;12;7
70520;PMS5003;58442;52.716;23.560;2023-03-23T03:30:00;12;10;7
70520;PMS5003;58442;52.716;23.560;2023-03-23T03:32:08;15;15;9
70520;PMS5003;58442;52.716;23.560;2023-03-23T03:34:15;14;14;7
70520;PMS5003;58442;52.716;23.560;2023-03-23T03:36:19;14;14;9
70520;PMS5003;58442;52.716;23.560;2023-03-23T03:38:24;17;16;8
70520;PMS5003;58442;52.716;23.560;2023-03-23T03:40:25;13;13;7
70520;PMS5003;58442;52.716;23.560;2023-03-23T03:42:27;10;10;7
70520;PMS5003;58442;52.716;23.560;2023-03-23T03:44:30;15;14;9
70520;PMS5003;58442;52.716;23.560;2023-03-23T03:46:33;8;8;7
70520;PMS5003;58442;52.716;23.560;2023-03-23T03:48:35;24;13;8
70520;PMS5003;58442;52.716;23.560;2023-03-23T03:50:37;17;14;7
70520;PMS5003;58442;52.716;23.560;2023-03-23T03:52:45;12;11;8
70520;PMS5003;58442;52.716;23.560;2023-03-23T03:54:46;15;15;9
70520;PMS5003;58442;52.716;23.560;2023-03-23T03:56:47;13;13;8
70520;PMS5003;58442;52.716;23.560;2023-03-23T03:58:52;16;16;10
70520;PMS5003;58442;52.716;23.560;2023-03-23T04:01:00;12;12;8
70520;PMS5003;58442;52.716;23.560;2023-03-23T04:03:01;11;11;8
70520;PMS5003;58442;52.716;23.560;2023-03-23T04:05:03;14;13;8
70520;PMS5003;58442;52.716;23.560;2023-03-23T04:07:05;10;10;8
70520;PMS5003;58442;52.716;23.560;2023-03-23T04:09:14;14;13;8
70520;PMS5003;58442;52.716;23.560;2023-03-23T04:11:17;12;11;7
70520;PMS5003;58442;52.716;23.560;2023-03-23T04:22:46;10;10;7
70520;PMS5003;58442;52.716;23.560;2023-03-23T04:24:49;14;10;7
70520;PMS5003;58442;52.716;23.560;2023-03-23T04:26:52;12;12;6
70520;PMS5003;58442;52.716;23.560;2023-03-23T04:28:55;14;14;8
70520;PMS5003;58442;52.716;23.560;2023-03-23T04:30:56;13;13;8
70520;PMS5003;58442;52.716;23.560;2023-03-23T04:33:00;12;12;8
70520;PMS5003;58442;52.716;23.560;2023-03-23T04:35:02;10;10;6
70520;PMS5003;58442;52.716;23.560;2023-03-23T04:37:04;11;11;7
70520;PMS5003;58442;52.716;23.560;2023-03-23T04:39:05;12;11;6
70520;PMS5003;58442;52.716;23.560;2023-03-23T04:41:14;13;13;9
70520;PMS5003;58442;52.716;23.560;2023-03-23T04:43:15;13;12;4
70520;PMS5003;58442;52.716;23.560;2023-03-23T04:45:18;9;9;7
70520;PMS5003;58442;52.716;23.560;2023-03-23T04:47:22;18;16;8
70520;PMS5003;58442;52.716;23.560;2023-03-23T04:49:29;11;10;8
70520;PMS5003;58442;52.716;23.560;2023-03-23T04:51:30;14;14;8
70520;PMS5003;58442;52.716;23.560;2023-03-23T04:53:32;19;18;9
70520;PMS5003;58442;52.716;23.560;2023-03-23T04:55:34;12;12;8
70520;PMS5003;58442;52.716;23.560;2023-03-23T04:57:44;16;16;8
70520;PMS5003;58442;52.716;23.560;2023-03-23T04:59:45;14;14;8
70520;PMS5003;58442;52.716;23.560;2023-03-23T05:01:46;14;14;8
70520;PMS5003;58442;52.716;23.560;2023-03-23T05:03:48;16;15;8
70520;PMS5003;58442;52.716;23.560;2023-03-23T05:06:00;19;14;7
70520;PMS5003;58442;52.716;23.560;2023-03-23T05:08:03;11;11;8
70520;PMS5003;58442;52.716;23.560;2023-03-23T05:10:05;13;13;8
70520;PMS5003;58442;52.716;23.560;2023-03-23T05:12:08;16;15;7
70520;PMS5003;58442;52.716;23.560;2023-03-23T05:14:13;21;19;12
70520;PMS5003;58442;52.716;23.560;2023-03-23T05:16:15;15;13;8
70520;PMS5003;58442;52.716;23.560;2023-03-23T05:18:17;18;14;7
70520;PMS5003;58442;52.716;23.560;2023-03-23T05:20:20;17;17;10
70520;PMS5003;58442;52.716;23.560;2023-03-23T05:22:28;20;17;9
70520;PMS5003;58442;52.716;23.560;2023-03-23T05:24:32;15;14;11
70520;PMS5003;58442;52.716;23.560;2023-03-23T05:26:34;17;14;8
70520;PMS5003;58442;52.716;23.560;2023-03-23T05:28:35;15;15;7
70520;PMS5003;58442;52.716;23.560;2023-03-23T05:30:43;20;20;12
70520;PMS5003;58442;52.716;23.560;2023-03-23T05:32:45;17;16;9
70520;PMS5003;58442;52.716;23.560;2023-03-23T05:34:51;22;19;10
70520;PMS5003;58442;52.716;23.560;2023-03-23T05:36:52;23;18;9
70520;PMS5003;58442;52.716;23.560;2023-03-23T05:38:58;11;10;5
70520;PMS5003;58442;52.716;23.560;2023-03-23T05:41:04;15;15;8
70520;PMS5003;58442;52.716;23.560;2023-03-23T05:43:05;17;17;9
70520;PMS5003;58442;52.716;23.560;2023-03-23T05:45:08;16;16;10
70520;PMS5003;58442;52.716;23.560;2023-03-23T05:47:13;15;14;9
70520;PMS5003;58442;52.716;23.560;2023-03-23T05:49:15;14;14;11
70520;PMS5003;58442;52.716;23.560;2023-03-23T05:51:17;18;17;9
70520;PMS5003;58442;52.716;23.560;2023-03-23T05:53:20;15;15;9
70520;PMS5003;58442;52.716;23.560;2023-03-23T05:55:28;19;17;11
70520;PMS5003;58442;52.716;23.560;2023-03-23T05:57:30;13;12;7
70520;PMS5003;58442;52.716;23.560;2023-03-23T05:59:31;11;11;8
70520;PMS5003;58442;52.716;23.560;2023-03-23T06:01:34;17;16;8
70520;PMS5003;58442;52.716;23.560;2023-03-23T06:03:43;20;19;13
70520;PMS5003;58442;52.716;23.560;2023-03-23T06:05:46;18;17;10
70520;PMS5003;58442;52.716;23.560;2023-03-23T06:07:47;21;18;10
70520;PMS5003;58442;52.716;23.560;2023-03-23T06:09:48;14;14;10
70520;PMS5003;58442;52.716;23.560;2023-03-23T06:11:58;20;19;11
70520;PMS5003;58442;52.716;23.560;2023-03-23T06:13:59;16;16;9
70520;PMS5003;58442;52.716;23.560;2023-03-23T06:16:02;18;18;10
70520;PMS5003;58442;52.716;23.560;2023-03-23T06:18:04;17;15;10
70520;PMS5003;58442;52.716;23.560;2023-03-23T06:20:13;19;19;13
70520;PMS5003;58442;52.716;23.560;2023-03-23T06:22:16;20;19;13
70520;PMS5003;58442;52.716;23.560;2023-03-23T06:24:18;12;11;8
70520;PMS5003;58442;52.716;23.560;2023-03-23T06:26:19;19;16;8
70520;PMS5003;58442;52.716;23.560;2023-03-23T06:28:28;18;18;11
70520;PMS5003;58442;52.716;23.560;2023-03-23T06:30:29;16;16;10
70520;PMS5003;58442;52.716;23.560;2023-03-23T06:32:31;16;16;11
70520;PMS5003;58442;52.716;23.560;2023-03-23T06:34:34;22;22;11
70520;PMS5003;58442;52.716;23.560;2023-03-23T06:36:42;27;20;11
70520;PMS5003;58442;52.716;23.560;2023-03-23T06:38:45;21;20;11
70520;PMS5003;58442;52.716;23.560;2023-03-23T06:40:47;23;23;14
70520;PMS5003;58442;52.716;23.560;2023-03-23T06:42:50;25;24;15
70520;PMS5003;58442;52.716;23.560;2023-03-23T06:44:57;26;26;14
70520;PMS5003;58442;52.716;23.560;2023-03-23T06:47:01;22;22;15
70520;PMS5003;58442;52.716;23.560;2023-03-23T06:49:04;15;14;11
70520;PMS5003;58442;52.716;23.560;2023-03-23T06:51:06;23;22;14
70520;PMS5003;58442;52.716;23.560;2023-03-23T06:53:12;19;18;11
70520;PMS5003;58442;52.716;23.560;2023-03-23T06:55:14;18;17;8
70520;PMS5003;58442;52.716;23.560;2023-03-23T06:57:17;16;16;11
70520;PMS5003;58442;52.716;23.560;2023-03-23T06:59:20;24;17;10
70520;PMS5003;58442;52.716;23.560;2023-03-23T07:01:27;23;23;13
70520;PMS5003;58442;52.716;23.560;2023-03-23T07:03:29;19;19;9
70520;PMS5003;58442;52.716;23.560;2023-03-23T07:05:32;23;23;14
70520;PMS5003;58442;52.716;23.560;2023-03-23T07:07:36;20;19;11
70520;PMS5003;58442;52.716;23.560;2023-03-23T07:09:42;19;19;11
70520;PMS5003;58442;52.716;23.560;2023-03-23T07:11:45;22;22;14
70520;PMS5003;58442;52.716;23.560;2023-03-23T07:23:28;20;20;14
70520;PMS5003;58442;52.716;23.560;2023-03-23T07:25:31;20;20;13
70520;PMS5003;58442;52.716;23.560;2023-03-23T07:27:33;28;26;14
70520;PMS5003;58442;52.716;23.560;2023-03-23T07:29:35;23;23;14
70520;PMS5003;58442;52.716;23.560;2023-03-23T07:31:39;27;26;16
70520;PMS5003;58442;52.716;23.560;2023-03-23T07:33:40;24;22;13
70520;PMS5003;58442;52.716;23.560;2023-03-23T07:35:42;27;25;15
70520;PMS5003;58442;52.716;23.560;2023-03-23T07:37:43;30;25;13
70520;PMS5003;58442;52.716;23.560;2023-03-23T07:39:49;24;24;14
70520;PMS5003;58442;52.716;23.560;2023-03-23T07:41:54;21;21;14
70520;PMS5003;58442;52.716;23.560;2023-03-23T07:43:56;28;27;17
70520;PMS5003;58442;52.716;23.560;2023-03-23T07:45:57;24;24;15
70520;PMS5003;58442;52.716;23.560;2023-03-23T07:47:59;20;20;10
70520;PMS5003;58442;52.716;23.560;2023-03-23T07:50:09;19;19;16
70520;PMS5003;58442;52.716;23.560;2023-03-23T07:52:12;19;19;14
70520;PMS5003;58442;52.716;23.560;2023-03-23T07:54:14;25;25;13
70520;PMS5003;58442;52.716;23.560;2023-03-23T07:56:17;26;24;16
70520;PMS5003;58442;52.716;23.560;2023-03-23T07:58:24;22;22;12
70520;PMS5003;58442;52.716;23.560;2023-03-23T08:00:26;22;21;13
70520;PMS5003;58442;52.716;23.560;2023-03-23T08:02:28;23;23;13
70520;PMS5003;58442;52.716;23.560;2023-03-23T08:17:20;21;21;14
70520;PMS5003;58442;52.716;23.560;2023-03-23T08:19:22;18;18;12
70520;PMS5003;58442;52.716;23.560;2023-03-23T08:21:24;21;21;14
70520;PMS5003;58442;52.716;23.560;2023-03-23T08:23:27;20;19;14
70520;PMS5003;58442;52.716;23.560;2023-03-23T08:25:29;26;25;17
70520;PMS5003;58442;52.716;23.560;2023-03-23T08:27:35;22;21;14
70520;PMS5003;58442;52.716;23.560;2023-03-23T08:29:38;17;17;12
70520;PMS5003;58442;52.716;23.560;2023-03-23T08:31:41;18;17;11
70520;PMS5003;58442;52.716;23.560;2023-03-23T08:33:45;17;17;14
70520;PMS5003;58442;52.716;23.560;2023-03-23T08:37:57;23;21;14
70520;PMS5003;58442;52.716;23.560;2023-03-23T08:39:58;15;15;12
70520;PMS5003;58442;52.716;23.560;2023-03-23T08:42:00;20;20;13
70520;PMS5003;58442;52.716;23.560;2023-03-23T08:44:01;21;21;16
70520;PMS5003;58442;52.716;23.560;2023-03-23T08:46:08;20;20;12
70520;PMS5003;58442;52.716;23.560;2023-03-23T08:48:11;23;23;16
70520;PMS5003;58442;52.716;23.560;2023-03-23T08:50:13;21;21;12
70520;PMS5003;58442;52.716;23.560;2023-03-23T08:52:16;21;21;14
70520;PMS5003;58442;52.716;23.560;2023-03-23T08:54:23;25;25;15
70520;PMS5003;58442;52.716;23.560;2023-03-23T08:56:24;24;24;15
70520;PMS5003;58442;52.716;23.560;2023-03-23T08:58:26;25;24;15
70520;PMS5003;58442;52.716;23.560;2023-03-23T09:00:29;19;19;12
70520;PMS5003;58442;52.716;23.560;2023-03-23T09:02:38;18;17;12
70520;PMS5003;58442;52.716;23.560;2023-03-23T09:04:39;20;20;14
70520;PMS5003;58442;52.716;23.560;2023-03-23T09:06:43;24;24;13
70520;PMS5003;58442;52.716;23.560;2023-03-23T09:08:46;20;20;15
70520;PMS5003;58442;52.716;23.560;2023-03-23T09:10:52;17;17;12
70520;PMS5003;58442;52.716;23.560;2023-03-23T09:12:54;17;17;12
70520;PMS5003;58442;52.716;23.560;2023-03-23T09:14:57;18;18;15
70520;PMS5003;58442;52.716;23.560;2023-03-23T09:16:58;22;19;11
70520;PMS5003;58442;52.716;23.560;2023-03-23T09:19:07;19;19;12
70520;PMS5003;58442;52.716;23.560;2023-03-23T09:21:09;14;14;11
70520;PMS5003;58442;52.716;23.560;2023-03-23T09:23:11;20;20;14
70520;PMS5003;58442;52.716;23.560;2023-03-23T09:25:14;13;13;9
70520;PMS5003;58442;52.716;23.560;2023-03-23T09:27:22;15;15;11
70520;PMS5003;58442;52.716;23.560;2023-03-23T09:29:24;14;13;11
70520;PMS5003;58442;52.716;23.560;2023-03-23T09:31:27;14;14;9
70520;PMS5003;58442;52.716;23.560;2023-03-23T09:33:28;13;13;9
70520;PMS5003;58442;52.716;23.560;2023-03-23T09:35:37;15;15;10
70520;PMS5003;58442;52.716;23.560;2023-03-23T09:37:39;10;10;8
70520;PMS5003;58442;52.716;23.560;2023-03-23T09:39:41;14;14;10
70520;PMS5003;58442;52.716;23.560;2023-03-23T09:41:58;13;13;8
70520;PMS5003;58442;52.716;23.560;2023-03-23T09:50:58;14;14;9
70520;PMS5003;58442;52.716;23.560;2023-03-23T09:53:08;12;12;9
70520;PMS5003;58442;52.716;23.560;2023-03-23T09:55:17;13;13;10
70520;PMS5003;58442;52.716;23.560;2023-03-23T10:01:48;11;11;10
70520;PMS5003;58442;52.716;23.560;2023-03-23T10:04:07;11;11;9
70520;PMS5003;58442;52.716;23.560;2023-03-23T10:06:25;12;12;9
70520;PMS5003;58442;52.716;23.560;2023-03-23T10:08:27;8;8;7
70520;PMS5003;58442;52.716;23.560;2023-03-23T10:10:54;11;11;8
70520;PMS5003;58442;52.716;23.560;2023-03-23T10:12:51;8;8;7
70520;PMS5003;58442;52.716;23.560;2023-03-23T10:17:19;11;11;9
70520;PMS5003;58442;52.716;23.560;2023-03-23T10:19:33;9;9;7
70520;PMS5003;58442;52.716;23.560;2023-03-23T10:21:48;9;9;8
70520;PMS5003;58442;52.716;23.560;2023-03-23T10:23:58;11;11;9
70520;PMS5003;58442;52.716;23.560;2023-03-23T10:26:27;9;9;8
70520;PMS5003;58442;52.716;23.560;2023-03-23T10:28:17;10;10;8
70520;PMS5003;58442;52.716;23.560;2023-03-23T10:30:24;11;11;8
70520;PMS5003;58442;52.716;23.560;2023-03-23T10:37:02;8;8;8
70520;PMS5003;58442;52.716;23.560;2023-03-23T10:39:11;14;14;9
70520;PMS5003;58442;52.716;23.560;2023-03-23T10:41:18;11;11;9
70520;PMS5003;58442;52.716;23.560;2023-03-23T10:43:22;8;8;6
70520;PMS5003;58442;52.716;23.560;2023-03-23T10:45:35;10;10;7
70520;PMS5003;58442;52.716;23.560;2023-03-23T10:47:37;7;7;4
70520;PMS5003;58442;52.716;23.560;2023-03-23T10:49:45;8;8;6
70520;PMS5003;58442;52.716;23.560;2023-03-23T10:52:04;10;10;7
70520;PMS5003;58442;52.716;23.560;2023-03-23T10:54:11;10;10;8
70520;PMS5003;58442;52.716;23.560;2023-03-23T10:58:34;8;8;6
70520;PMS5003;58442;52.716;23.560;2023-03-23T11:00:40;9;9;7
70520;PMS5003;58442;52.716;23.560;2023-03-23T11:02:46;8;8;7
70520;PMS5003;58442;52.716;23.560;2023-03-23T11:04:58;7;7;6
70520;PMS5003;58442;52.716;23.560;2023-03-23T11:07:02;6;6;5
70520;PMS5003;58442;52.716;23.560;2023-03-23T11:09:11;10;10;6
70520;PMS5003;58442;52.716;23.560;2023-03-23T11:11:18;6;6;5
70520;PMS5003;58442;52.716;23.560;2023-03-23T11:13:30;5;5;4
70520;PMS5003;58442;52.716;23.560;2023-03-23T11:15:34;5;5;5
70520;PMS5003;58442;52.716;23.560;2023-03-23T11:17:39;7;7;6
70520;PMS5003;58442;52.716;23.560;2023-03-23T11:19:52;8;7;6
70520;PMS5003;58442;52.716;23.560;2023-03-23T11:22:05;8;8;7
70520;PMS5003;58442;52.716;23.560;2023-03-23T11:24:07;6;6;6
70520;PMS5003;58442;52.716;23.560;2023-03-23T11:26:11;7;7;6
70520;PMS5003;58442;52.716;23.560;2023-03-23T11:28:18;6;6;4
70520;PMS5003;58442;52.716;23.560;2023-03-23T11:30:24;5;5;5
70520;PMS5003;58442;52.716;23.560;2023-03-23T11:32:28;10;9;8
70520;PMS5003;58442;52.716;23.560;2023-03-23T11:34:33;10;10;8
70520;PMS5003;58442;52.716;23.560;2023-03-23T11:36:43;9;9;6
70520;PMS5003;58442;52.716;23.560;2023-03-23T11:38:53;9;9;7
70520;PMS5003;58442;52.716;23.560;2023-03-23T11:40:58;6;6;5
70520;PMS5003;58442;52.716;23.560;2023-03-23T11:47:45;8;8;7
70520;PMS5003;58442;52.716;23.560;2023-03-23T11:49:45;9;9;7
70520;PMS5003;58442;52.716;23.560;2023-03-23T11:51:56;5;5;4
70520;PMS5003;58442;52.716;23.560;2023-03-23T11:54:17;7;7;6
70520;PMS5003;58442;52.716;23.560;2023-03-23T11:56:37;10;10;7
70520;PMS5003;58442;52.716;23.560;2023-03-23T11:58:40;10;10;7
70520;PMS5003;58442;52.716;23.560;2023-03-23T12:07:31;9;9;7
70520;PMS5003;58442;52.716;23.560;2023-03-23T12:09:45;9;9;7
70520;PMS5003;58442;52.716;23.560;2023-03-23T12:21:24;9;9;7
70520;PMS5003;58442;52.716;23.560;2023-03-23T12:23:42;9;9;7
70520;PMS5003;58442;52.716;23.560;2023-03-23T12:28:27;9;9;6
70520;PMS5003;58442;52.716;23.560;2023-03-23T12:33:09;9;9;6
70520;PMS5003;58442;52.716;23.560;2023-03-23T12:35:45;6;6;5
70520;PMS5003;58442;52.716;23.560;2023-03-23T12:37:57;10;10;8
70520;PMS5003;58442;52.716;23.560;2023-03-23T12:40:15;8;8;7
70520;PMS5003;58442;52.716;23.560;2023-03-23T12:42:33;7;7;6
70520;PMS5003;58442;52.716;23.560;2023-03-23T12:44:57;7;7;5
70520;PMS5003;58442;52.716;23.560;2023-03-23T12:52:07;13;13;9
70520;PMS5003;58442;52.716;23.560;2023-03-23T12:59:14;13;11;9
70520;PMS5003;58442;52.716;23.560;2023-03-23T13:01:24;12;12;9
70520;PMS5003;58442;52.716;23.560;2023-03-23T13:03:35;10;10;8
70520;PMS5003;58442;52.716;23.560;2023-03-23T13:05:46;11;11;9
70520;PMS5003;58442;52.716;23.560;2023-03-23T13:18:02;10;10;7
70520;PMS5003;58442;52.716;23.560;2023-03-23T13:24:46;8;8;6
70520;PMS5003;58442;52.716;23.560;2023-03-23T13:26:49;12;12;9
70520;PMS5003;58442;52.716;23.560;2023-03-23T13:33:14;12;12;9
70520;PMS5003;58442;52.716;23.560;2023-03-23T13:35:17;9;9;6
70520;PMS5003;58442;52.716;23.560;2023-03-23T13:37:31;9;9;6
70520;PMS5003;58442;52.716;23.560;2023-03-23T13:39:37;8;8;6
70520;PMS5003;58442;52.716;23.560;2023-03-23T13:41:48;9;8;6
70520;PMS5003;58442;52.716;23.560;2023-03-23T13:44:04;9;9;8
70520;PMS5003;58442;52.716;23.560;2023-03-23T13:46:23;11;11;8
70520;PMS5003;58442;52.716;23.560;2023-03-23T13:48:25;10;10;6
70520;PMS5003;58442;52.716;23.560;2023-03-23T13:50:30;10;10;7
70520;PMS5003;58442;52.716;23.560;2023-03-23T13:55:07;7;7;5
70520;PMS5003;58442;52.716;23.560;2023-03-23T13:57:19;9;9;7
70520;PMS5003;58442;52.716;23.560;2023-03-23T13:59:28;9;9;7
70520;PMS5003;58442;52.716;23.560;2023-03-23T14:03:49;12;12;7
70520;PMS5003;58442;52.716;23.560;2023-03-23T14:06:04;12;12;10
70520;PMS5003;58442;52.716;23.560;2023-03-23T14:15:29;16;16;11
70520;PMS5003;58442;52.716;23.560;2023-03-23T14:17:35;15;15;10
70520;PMS5003;58442;52.716;23.560;2023-03-23T14:19:48;10;10;7
70520;PMS5003;58442;52.716;23.560;2023-03-23T14:21:55;11;11;8
70520;PMS5003;58442;52.716;23.560;2023-03-23T14:26:12;9;9;8
70520;PMS5003;58442;52.716;23.560;2023-03-23T14:28:17;9;9;6
70520;PMS5003;58442;52.716;23.560;2023-03-23T14:30:23;7;7;6
70520;PMS5003;58442;52.716;23.560;2023-03-23T14:32:30;9;9;8
70520;PMS5003;58442;52.716;23.560;2023-03-23T14:34:33;8;8;7
70520;PMS5003;58442;52.716;23.560;2023-03-23T14:36:35;16;16;10
70520;PMS5003;58442;52.716;23.560;2023-03-23T14:38:37;11;11;9
70520;PMS5003;58442;52.716;23.560;2023-03-23T14:40:39;10;10;7
70520;PMS5003;58442;52.716;23.560;2023-03-23T14:42:41;36;33;18
70520;PMS5003;58442;52.716;23.560;2023-03-23T14:44:44;57;46;26
70520;PMS5003;58442;52.716;23.560;2023-03-23T14:46:48;53;41;22
70520;PMS5003;58442;52.716;23.560;2023-03-23T14:48:50;18;17;12
70520;PMS5003;58442;52.716;23.560;2023-03-23T14:50:57;22;20;13
70520;PMS5003;58442;52.716;23.560;2023-03-23T14:55:18;15;15;13
70520;PMS5003;58442;52.716;23.560;2023-03-23T14:59:30;10;10;7
70520;PMS5003;58442;52.716;23.560;2023-03-23T15:01:32;10;9;8
70520;PMS5003;58442;52.716;23.560;2023-03-23T15:05:56;8;8;6
70520;PMS5003;58442;52.716;23.560;2023-03-23T15:07:59;8;8;6
70520;PMS5003;58442;52.716;23.560;2023-03-23T15:10:07;8;8;6
70520;PMS5003;58442;52.716;23.560;2023-03-23T15:12:22;10;9;8
70520;PMS5003;58442;52.716;23.560;2023-03-23T15:14:27;8;8;7
70520;PMS5003;58442;52.716;23.560;2023-03-23T15:16:33;11;11;8
70520;PMS5003;58442;52.716;23.560;2023-03-23T15:18:36;9;9;6
70520;PMS5003;58442;52.716;23.560;2023-03-23T15:20:46;15;15;9
70520;PMS5003;58442;52.716;23.560;2023-03-23T15:25:11;12;12;8
70520;PMS5003;58442;52.716;23.560;2023-03-23T15:27:23;8;8;7
70520;PMS5003;58442;52.716;23.560;2023-03-23T15:29:29;10;10;7
70520;PMS5003;58442;52.716;23.560;2023-03-23T15:31:31;10;10;7
70520;PMS5003;58442;52.716;23.560;2023-03-23T15:33:43;9;9;6
70520;PMS5003;58442;52.716;23.560;2023-03-23T15:35:48;12;11;7
70520;PMS5003;58442;52.716;23.560;2023-03-23T15:37:51;12;12;7
70520;PMS5003;58442;52.716;23.560;2023-03-23T15:39:58;25;23;14
70520;PMS5003;58442;52.716;23.560;2023-03-23T15:42:00;17;17;13
70520;PMS5003;58442;52.716;23.560;2023-03-23T15:44:10;19;19;15
70520;PMS5003;58442;52.716;23.560;2023-03-23T15:46:21;11;11;9
70520;PMS5003;58442;52.716;23.560;2023-03-23T15:48:24;15;15;11
70520;PMS5003;58442;52.716;23.560;2023-03-23T15:52:43;9;9;6
70520;PMS5003;58442;52.716;23.560;2023-03-23T15:54:47;8;8;6
70520;PMS5003;58442;52.716;23.560;2023-03-23T15:56:49;12;12;9
70520;PMS5003;58442;52.716;23.560;2023-03-23T15:58:51;7;7;6
70520;PMS5003;58442;52.716;23.560;2023-03-23T16:00:57;7;7;6
70520;PMS5003;58442;52.716;23.560;2023-03-23T16:03:05;9;9;7
70520;PMS5003;58442;52.716;23.560;2023-03-23T16:05:10;7;7;6
70520;PMS5003;58442;52.716;23.560;2023-03-23T16:07:13;10;10;7
70520;PMS5003;58442;52.716;23.560;2023-03-23T16:09:15;8;8;7
70520;PMS5003;58442;52.716;23.560;2023-03-23T16:11:18;19;19;15
70520;PMS5003;58442;52.716;23.560;2023-03-23T16:13:20;44;38;26
70520;PMS5003;58442;52.716;23.560;2023-03-23T16:15:23;25;25;18
70520;PMS5003;58442;52.716;23.560;2023-03-23T16:17:28;18;18;15
70520;PMS5003;58442;52.716;23.560;2023-03-23T16:19:30;17;17;12
70520;PMS5003;58442;52.716;23.560;2023-03-23T16:21:32;21;21;15
70520;PMS5003;58442;52.716;23.560;2023-03-23T16:23:33;18;16;11
70520;PMS5003;58442;52.716;23.560;2023-03-23T16:25:43;13;13;10